createdAt,value
2022-09-15T00:01:50.898Z,100352.69
2022-09-15T00:04:17.504Z,100355.44
2022-09-15T00:06:44.020Z,100360.88
2022-09-15T00:09:10.441Z,100355.91
2022-09-15T00:11:38.330Z,100353.19
2022-09-15T00:14:06.968Z,100358.66
2022-09-15T00:16:33.659Z,100345.72
2022-09-15T00:19:00.813Z,100350.94
2022-09-15T00:21:30.950Z,100357.16
2022-09-15T00:23:59.262Z,100347.47
2022-09-15T00:26:27.547Z,100338.53
2022-09-15T00:28:54.609Z,100346.75
2022-09-15T00:31:23.828Z,100353.44
2022-09-15T00:33:52.319Z,100348.72
2022-09-15T00:36:19.830Z,100348.44
2022-09-15T00:38:46.615Z,100349.19
2022-09-15T00:41:15.157Z,100341.00
2022-09-15T00:44:01.103Z,100349.72
2022-09-15T00:46:30.785Z,100338.78
2022-09-15T00:49:06.430Z,100338.53
2022-09-15T00:51:42.981Z,100337.28
2022-09-15T00:54:16.499Z,100339.28
2022-09-15T00:56:45.343Z,100339.28
2022-09-15T00:59:17.119Z,100340.47
2022-09-15T01:01:44.906Z,100344.75
2022-09-15T01:04:12.834Z,100344.47
2022-09-15T01:06:47.804Z,100341.00
2022-09-15T01:09:23.769Z,100351.94
2022-09-15T01:11:50.935Z,100361.38
2022-09-15T01:14:17.443Z,100353.91
2022-09-15T01:16:53.021Z,100355.91
2022-09-15T01:20:00.255Z,100356.41
2022-09-15T01:22:51.601Z,100350.94
2022-09-15T01:25:56.541Z,100360.38
2022-09-15T01:28:45.182Z,100356.41
2022-09-15T01:31:29.419Z,100358.13
2022-09-15T01:34:05.926Z,100357.38
2022-09-15T01:36:45.333Z,100358.88
2022-09-15T01:39:23.992Z,100355.41
2022-09-15T01:41:55.424Z,100361.38
2022-09-15T01:44:26.211Z,100357.38
2022-09-15T01:47:02.202Z,100339.53
2022-09-15T01:49:34.262Z,100341.50
2022-09-15T01:52:01.055Z,100345.97
2022-09-15T01:54:33.374Z,100346.97
2022-09-15T01:56:59.961Z,100355.16
2022-09-15T01:59:26.430Z,100354.41
2022-09-15T02:02:04.561Z,100345.97
2022-09-15T02:04:46.568Z,100352.16
2022-09-15T02:07:31.194Z,100347.94
2022-09-15T02:10:17.677Z,100352.66
2022-09-15T02:12:56.072Z,100358.88
2022-09-15T02:15:33.428Z,100353.91
2022-09-15T02:18:02.521Z,100357.09
2022-09-15T02:20:35.205Z,100364.09
2022-09-15T02:23:08.140Z,100355.13
2022-09-15T02:25:41.846Z,100366.31
2022-09-15T02:28:11.539Z,100357.09
2022-09-15T02:30:42.025Z,100347.94
2022-09-15T02:33:14.679Z,100363.09
2022-09-15T02:35:41.683Z,100361.59
2022-09-15T02:38:10.548Z,100359.59
2022-09-15T02:40:40.415Z,100363.56
2022-09-15T02:43:11.061Z,100356.13
2022-09-15T02:45:37.567Z,100353.41
2022-09-15T02:48:04.635Z,100351.94
2022-09-15T02:50:31.140Z,100351.16
2022-09-15T02:52:57.730Z,100359.34
2022-09-15T02:55:27.265Z,100349.19
2022-09-15T02:57:53.705Z,100344.94
2022-09-15T03:00:20.723Z,100349.19
2022-09-15T03:02:51.110Z,100342.22
2022-09-15T03:05:26.409Z,100350.41
2022-09-15T03:07:53.355Z,100339.47
2022-09-15T03:10:20.724Z,100336.00
2022-09-15T03:12:49.614Z,100336.00
2022-09-15T03:15:18.857Z,100337.97
2022-09-15T03:17:46.959Z,100337.97
2022-09-15T03:20:17.156Z,100335.25
2022-09-15T03:22:44.038Z,100341.94
2022-09-15T03:25:11.332Z,100341.94
2022-09-15T03:27:38.381Z,100348.16
2022-09-15T03:30:07.121Z,100353.63
2022-09-15T03:32:33.551Z,100353.41
2022-09-15T03:34:59.971Z,100364.31
2022-09-15T03:37:26.719Z,100364.31
2022-09-15T03:39:53.194Z,100364.31
2022-09-15T03:42:20.571Z,100360.84
2022-09-15T03:44:47.226Z,100357.63
2022-09-15T03:47:13.697Z,100343.69
2022-09-15T03:49:40.083Z,100345.66
2022-09-15T03:52:06.510Z,100353.84
2022-09-15T03:54:35.455Z,100356.59
2022-09-15T03:57:02.124Z,100355.13
2022-09-15T03:59:28.542Z,100355.13
2022-09-15T04:01:55.017Z,100361.06
2022-09-15T04:04:21.525Z,100355.63
2022-09-15T04:06:47.996Z,100361.06
2022-09-15T04:09:14.529Z,100364.56
2022-09-15T04:11:40.969Z,100359.59
2022-09-15T04:14:07.465Z,100363.06
2022-09-15T04:16:34.172Z,100371.25
2022-09-15T04:19:00.863Z,100355.63
2022-09-15T04:21:27.343Z,100359.09
2022-09-15T04:23:54.120Z,100359.59
2022-09-15T04:26:31.384Z,100363.06
2022-09-15T04:29:03.720Z,100360.81
2022-09-15T04:31:31.893Z,100357.34
2022-09-15T04:33:58.432Z,100374.97
2022-09-15T04:36:27.411Z,100372.47
2022-09-15T04:38:53.841Z,100381.19
2022-09-15T04:41:20.986Z,100368.00
2022-09-15T04:43:48.039Z,100372.97
2022-09-15T04:46:15.217Z,100366.78
2022-09-15T04:48:42.452Z,100350.88
2022-09-15T04:51:12.729Z,100347.41
2022-09-15T04:53:39.572Z,100348.88
2022-09-15T04:56:08.488Z,100338.44
2022-09-15T04:58:39.411Z,100342.91
2022-09-15T05:01:13.370Z,100339.69
2022-09-15T05:03:41.010Z,100343.91
2022-09-15T05:06:09.997Z,100336.22
2022-09-15T05:08:36.706Z,100345.63
2022-09-15T05:11:05.758Z,100344.41
2022-09-15T05:13:33.145Z,100342.91
2022-09-15T05:16:12.046Z,100351.09
2022-09-15T05:18:39.901Z,100350.63
2022-09-15T05:21:07.836Z,100354.09
2022-09-15T05:23:35.829Z,100346.66
2022-09-15T05:26:04.952Z,100355.63
2022-09-15T05:28:36.311Z,100345.16
2022-09-15T05:31:11.410Z,100348.63
2022-09-15T05:33:38.571Z,100343.44
2022-09-15T05:36:05.373Z,100346.91
2022-09-15T05:38:32.304Z,100347.66
2022-09-15T05:41:07.300Z,100344.91
2022-09-15T05:43:35.423Z,100341.44
2022-09-15T05:46:02.894Z,100345.16
2022-09-15T05:48:30.046Z,100347.16
2022-09-15T05:50:56.972Z,100347.88
2022-09-15T05:53:24.440Z,100342.41
2022-09-15T05:55:58.073Z,100336.50
2022-09-15T05:58:25.968Z,100342.19
2022-09-15T06:00:53.475Z,100348.41
2022-09-15T06:03:20.952Z,100348.16
2022-09-15T06:05:47.816Z,100336.72
2022-09-15T06:08:14.338Z,100345.19
2022-09-15T06:10:40.794Z,100347.94
2022-09-15T06:13:07.270Z,100343.97
2022-09-15T06:15:33.752Z,100340.47
2022-09-15T06:18:00.205Z,100352.66
2022-09-15T06:20:26.729Z,100349.19
2022-09-15T06:22:53.769Z,100352.16
2022-09-15T06:25:20.261Z,100353.41
2022-09-15T06:27:49.163Z,100355.88
2022-09-15T06:30:15.687Z,100353.13
2022-09-15T06:32:47.411Z,100351.94
2022-09-15T06:35:15.189Z,100359.13
2022-09-15T06:37:41.652Z,100354.16
2022-09-15T06:40:08.831Z,100360.34
2022-09-15T06:42:35.417Z,100352.38
2022-09-15T06:45:01.881Z,100356.38
2022-09-15T06:47:33.777Z,100357.63
2022-09-15T06:50:00.991Z,100364.84
2022-09-15T06:52:28.093Z,100360.84
2022-09-15T06:54:54.598Z,100369.34
2022-09-15T06:57:21.068Z,100380.50
2022-09-15T06:59:47.542Z,100379.75
2022-09-15T07:02:14.040Z,100363.59
2022-09-15T07:04:40.533Z,100374.56
2022-09-15T07:07:06.958Z,100372.59
2022-09-15T07:09:33.428Z,100379.53
2022-09-15T07:11:59.915Z,100377.81
2022-09-15T07:14:26.340Z,100383.53
2022-09-15T07:16:52.816Z,100375.78
2022-09-15T07:19:19.243Z,100386.78
2022-09-15T07:21:45.642Z,100389.97
2022-09-15T07:24:12.757Z,100391.47
2022-09-15T07:26:39.286Z,100395.94
2022-09-15T07:29:06.907Z,100403.16
2022-09-15T07:31:35.341Z,100399.66
2022-09-15T07:34:02.416Z,100400.41
2022-09-15T07:36:29.816Z,100396.66
2022-09-15T07:38:56.691Z,100402.59
2022-09-15T07:41:26.293Z,100412.34
2022-09-15T07:43:54.990Z,100419.81
2022-09-15T07:46:23.947Z,100428.22
2022-09-15T07:48:53.107Z,100429.97
2022-09-15T07:51:20.841Z,100420.53
2022-09-15T07:53:48.881Z,100417.78
2022-09-15T07:56:18.396Z,100416.03
2022-09-15T07:58:46.434Z,100411.84
2022-09-15T08:01:16.536Z,100412.09
2022-09-15T08:03:45.300Z,100418.56
2022-09-15T08:06:13.283Z,100415.84
2022-09-15T08:08:41.282Z,100418.06
2022-09-15T08:11:19.134Z,100414.84
2022-09-15T08:13:50.114Z,100409.88
2022-09-15T08:16:19.827Z,100416.06
2022-09-15T08:18:46.469Z,100414.31
2022-09-15T08:21:17.290Z,100410.81
2022-09-15T08:23:44.030Z,100412.34
2022-09-15T08:26:14.312Z,100416.03
2022-09-15T08:28:42.266Z,100420.53
2022-09-15T08:31:11.404Z,100412.81
2022-09-15T08:33:43.146Z,100420.00
2022-09-15T08:36:11.892Z,100421.00
2022-09-15T08:38:40.422Z,100417.25
2022-09-15T08:41:12.293Z,100429.47
2022-09-15T08:43:53.381Z,100422.97
2022-09-15T08:46:26.092Z,100424.94
2022-09-15T08:49:08.023Z,100427.41
2022-09-15T08:54:11.422Z,100434.34
2022-09-15T08:56:39.278Z,100436.84
2022-09-15T08:59:05.715Z,100432.09
2022-09-15T09:01:41.547Z,100431.84
2022-09-15T09:04:22.868Z,100437.06
2022-09-15T09:07:01.030Z,100439.06
2022-09-15T09:09:42.813Z,100443.53
2022-09-15T09:12:19.853Z,100445.78
2022-09-15T09:15:25.141Z,100451.47
2022-09-15T09:18:16.042Z,100457.44
2022-09-15T09:20:50.862Z,100457.44
2022-09-15T09:23:22.204Z,100455.94
2022-09-15T09:25:50.392Z,100455.66
2022-09-15T09:28:40.732Z,100455.91
2022-09-15T09:31:17.183Z,100455.66
2022-09-15T09:34:03.764Z,100452.66
2022-09-15T09:36:30.355Z,100452.38
2022-09-15T09:38:57.196Z,100465.31
2022-09-15T09:41:28.536Z,100455.84
2022-09-15T09:43:55.965Z,100449.78
2022-09-15T09:46:22.424Z,100453.31
2022-09-15T09:49:20.280Z,100454.31
2022-09-15T09:52:04.942Z,100448.81
2022-09-15T09:54:33.835Z,100449.75
2022-09-15T09:57:21.967Z,100437.03
2022-09-15T09:59:50.421Z,100433.25
2022-09-15T10:02:23.089Z,100427.72
2022-09-15T10:04:51.925Z,100424.19
2022-09-15T10:07:21.770Z,100418.66
2022-09-15T10:09:59.991Z,100431.88
2022-09-15T10:12:32.754Z,100426.88
2022-09-15T10:15:04.432Z,100428.13
2022-09-15T10:17:36.641Z,100427.63
2022-09-15T10:20:06.162Z,100430.38
2022-09-15T10:22:35.787Z,100420.63
2022-09-15T10:25:23.732Z,100429.81
2022-09-15T10:28:10.132Z,100425.81
2022-09-15T10:30:37.170Z,100428.56
2022-09-15T10:33:20.479Z,100433.09
2022-09-15T10:35:46.976Z,100428.84
2022-09-15T10:38:17.819Z,100439.34
2022-09-15T10:41:03.141Z,100437.63
2022-09-15T10:43:53.998Z,100441.66
2022-09-15T10:46:44.943Z,100454.91
2022-09-15T10:49:49.802Z,100467.91
2022-09-15T10:52:40.393Z,100473.66
2022-09-15T10:55:48.511Z,100473.41
2022-09-15T10:58:17.587Z,100474.69
2022-09-15T11:01:26.610Z,100470.00
2022-09-15T11:04:08.486Z,100471.72
2022-09-15T11:07:02.618Z,100463.56
2022-09-15T11:10:05.327Z,100468.31
2022-09-15T11:12:52.384Z,100459.84
2022-09-15T11:15:33.464Z,100450.66
2022-09-15T11:18:18.484Z,100445.66
2022-09-15T11:20:50.864Z,100445.91
2022-09-15T11:23:37.487Z,100451.63
2022-09-15T11:26:20.605Z,100455.38
2022-09-15T11:28:54.042Z,100456.06
2022-09-15T11:31:26.924Z,100453.28
2022-09-15T11:34:17.676Z,100459.50
2022-09-15T11:37:01.506Z,100461.47
2022-09-15T11:39:36.185Z,100454.97
2022-09-15T11:42:13.770Z,100456.19
2022-09-15T11:44:45.021Z,100457.19
2022-09-15T11:47:14.767Z,100461.88
2022-09-15T11:50:07.886Z,100455.38
2022-09-15T11:52:59.424Z,100450.09
2022-09-15T11:56:13.826Z,100452.56
2022-09-15T11:58:49.006Z,100455.03
2022-09-15T12:01:24.994Z,100456.22
2022-09-15T12:04:08.508Z,100456.72
2022-09-15T12:06:45.913Z,100450.69
2022-09-15T12:09:15.974Z,100456.94
2022-09-15T12:11:46.246Z,100461.16
2022-09-15T12:14:17.097Z,100449.16
2022-09-15T12:16:44.562Z,100454.88
2022-09-15T12:19:41.130Z,100450.19
2022-09-15T12:22:17.735Z,100446.94
2022-09-15T12:24:58.850Z,100451.16
2022-09-15T12:27:27.567Z,100455.41
2022-09-15T12:29:56.546Z,100453.16
2022-09-15T12:32:29.859Z,100452.94
2022-09-15T12:35:02.563Z,100456.72
2022-09-15T12:37:52.863Z,100454.97
2022-09-15T12:40:39.824Z,100471.19
2022-09-15T12:43:12.765Z,100470.97
2022-09-15T12:45:41.422Z,100476.72
2022-09-15T12:48:35.795Z,100470.03
2022-09-15T12:51:05.689Z,100472.03
2022-09-15T12:53:51.652Z,100461.06
2022-09-15T12:56:24.674Z,100448.59
2022-09-15T12:58:52.214Z,100455.81
2022-09-15T13:01:19.167Z,100458.75
2022-09-15T13:03:45.877Z,100458.25
2022-09-15T13:06:26.250Z,100453.53
2022-09-15T13:09:01.581Z,100455.50
2022-09-15T13:11:37.531Z,100456.97
2022-09-15T13:14:04.186Z,100460.69
2022-09-15T13:16:52.828Z,100461.44
2022-09-15T13:19:44.335Z,100458.72
2022-09-15T13:22:10.711Z,100457.94
2022-09-15T13:25:02.039Z,100454.44
2022-09-15T13:27:50.371Z,100448.00
2022-09-15T13:30:29.136Z,100452.00
2022-09-15T13:33:15.480Z,100448.28
2022-09-15T13:36:05.017Z,100447.53
2022-09-15T13:38:54.598Z,100444.06
2022-09-15T13:41:24.006Z,100436.81
2022-09-15T13:44:08.593Z,100441.59
2022-09-15T13:46:47.701Z,100434.06
2022-09-15T13:49:43.207Z,100433.38
2022-09-15T13:52:18.490Z,100426.59
2022-09-15T13:55:21.437Z,100432.09
2022-09-15T14:00:48.381Z,100421.09
2022-09-15T14:03:18.021Z,100417.09
2022-09-15T14:05:45.264Z,100427.31
2022-09-15T14:08:26.399Z,100421.81
2022-09-15T14:11:02.764Z,100421.31
2022-09-15T14:13:30.485Z,100419.09
2022-09-15T14:16:01.104Z,100423.81
2022-09-15T14:18:28.724Z,100423.06
2022-09-15T14:21:03.795Z,100433.09
2022-09-15T14:23:31.036Z,100440.31
2022-09-15T14:26:00.337Z,100464.25
2022-09-15T14:28:32.243Z,100498.44
2022-09-15T14:31:00.601Z,100502.69
2022-09-15T14:33:37.860Z,100506.72
2022-09-15T14:36:20.580Z,100504.00
2022-09-15T14:39:02.929Z,100497.31
2022-09-15T14:41:32.624Z,100495.03
2022-09-15T14:43:59.023Z,100488.59
2022-09-15T14:46:36.964Z,100488.34
2022-09-15T14:49:11.295Z,100483.91
2022-09-15T14:51:38.545Z,100485.63
2022-09-15T14:54:07.697Z,100477.94
2022-09-15T14:56:41.133Z,100479.19
2022-09-15T14:59:14.810Z,100478.19
2022-09-15T15:01:50.857Z,100476.69
2022-09-15T15:04:31.035Z,100470.22
2022-09-15T15:07:08.147Z,100474.44
2022-09-15T15:09:58.127Z,100470.75
2022-09-15T15:12:34.532Z,100465.78
2022-09-15T15:15:01.802Z,100463.78
2022-09-15T15:17:47.883Z,100461.78
2022-09-15T15:20:22.723Z,100458.78
2022-09-15T15:23:08.027Z,100463.03
2022-09-15T15:25:34.605Z,100471.00
2022-09-15T15:28:03.202Z,100472.47
2022-09-15T15:30:29.652Z,100479.47
2022-09-15T15:33:26.636Z,100474.25
2022-09-15T15:36:13.837Z,100481.47
2022-09-15T15:38:57.526Z,100484.72
2022-09-15T15:41:29.638Z,100484.50
2022-09-15T15:44:09.286Z,100487.72
2022-09-15T15:46:50.967Z,100486.00
2022-09-15T15:49:18.711Z,100488.50
2022-09-15T15:51:45.194Z,100489.50
2022-09-15T15:54:11.716Z,100490.53
2022-09-15T15:56:38.504Z,100474.34
2022-09-15T15:59:05.835Z,100476.13
2022-09-15T16:01:33.231Z,100473.63
2022-09-15T16:03:59.734Z,100471.38
2022-09-15T16:06:26.249Z,100469.66
2022-09-15T16:08:52.828Z,100470.66
2022-09-15T16:11:20.822Z,100470.16
2022-09-15T16:13:48.266Z,100478.16
2022-09-15T16:16:14.792Z,100488.13
2022-09-15T16:18:41.268Z,100496.34
2022-09-15T16:21:15.836Z,100502.84
2022-09-15T16:23:42.327Z,100500.56
2022-09-15T16:26:13.455Z,100502.59
2022-09-15T16:28:40.163Z,100492.38
2022-09-15T16:31:10.879Z,100491.41
2022-09-15T16:33:38.229Z,100487.66
2022-09-15T16:36:08.118Z,100484.19
2022-09-15T16:38:36.275Z,100472.00
2022-09-15T16:41:04.222Z,100473.00
2022-09-15T16:43:30.672Z,100475.50
2022-09-15T16:45:57.879Z,100472.50
2022-09-15T16:48:27.345Z,100477.00
2022-09-15T16:51:20.358Z,100482.47
2022-09-15T16:53:40.982Z,100487.44
2022-09-15T16:56:11.437Z,100474.28
2022-09-15T16:58:38.449Z,100480.22
2022-09-15T17:01:05.552Z,100483.47
2022-09-15T17:03:32.409Z,100475.03
2022-09-15T17:06:00.844Z,100481.25
2022-09-15T17:08:31.080Z,100482.97
2022-09-15T17:11:00.651Z,100486.97
2022-09-15T17:13:30.694Z,100484.72
2022-09-15T17:15:57.855Z,100483.72
2022-09-15T17:18:24.911Z,100482.47
2022-09-15T17:20:51.722Z,100484.47
2022-09-15T17:23:23.982Z,100478.78
2022-09-15T17:25:52.919Z,100470.28
2022-09-15T17:28:24.377Z,100466.78
2022-09-15T17:30:55.716Z,100477.03
2022-09-15T17:33:23.106Z,100474.78
2022-09-15T17:35:49.891Z,100482.25
2022-09-15T17:38:16.535Z,100486.97
2022-09-15T17:40:43.081Z,100482.47
2022-09-15T17:43:15.974Z,100487.94
2022-09-15T17:45:45.194Z,100491.44
2022-09-15T17:48:12.281Z,100498.69
2022-09-15T17:50:39.894Z,100488.19
2022-09-15T17:53:13.961Z,100495.69
2022-09-15T17:55:41.043Z,100482.72
2022-09-15T17:58:08.008Z,100481.75
2022-09-15T18:00:37.457Z,100481.00
2022-09-15T18:03:28.801Z,100480.75
2022-09-15T18:06:16.560Z,100477.28
2022-09-15T18:08:44.176Z,100487.47
2022-09-15T18:11:13.821Z,100489.94
2022-09-15T18:13:40.219Z,100491.19
2022-09-15T18:16:11.342Z,100484.97
2022-09-15T18:18:39.951Z,100495.16
2022-09-15T18:21:15.658Z,100491.69
2022-09-15T18:23:42.454Z,100501.16
2022-09-15T18:26:09.153Z,100501.63
2022-09-15T18:28:35.575Z,100513.84
2022-09-15T18:31:02.021Z,100511.81
2022-09-15T18:33:29.064Z,100515.06
2022-09-15T18:35:59.090Z,100508.59
2022-09-15T18:38:25.896Z,100506.59
2022-09-15T18:40:55.264Z,100512.06
2022-09-15T18:43:22.949Z,100513.31
2022-09-15T18:45:50.292Z,100519.28
2022-09-15T18:48:16.818Z,100508.34
2022-09-15T18:50:44.580Z,100511.06
2022-09-15T18:53:11.718Z,100523.75
2022-09-15T18:55:41.537Z,100515.53
2022-09-15T18:58:11.244Z,100519.50
2022-09-15T19:00:41.237Z,100515.31
2022-09-15T19:03:11.251Z,100516.03
2022-09-15T19:05:38.528Z,100518.06
2022-09-15T19:08:05.108Z,100522.78
2022-09-15T19:10:32.461Z,100516.28
2022-09-15T19:12:58.854Z,100512.81
2022-09-15T19:15:25.276Z,100515.56
2022-09-15T19:17:51.822Z,100520.28
2022-09-15T19:20:18.804Z,100514.06
2022-09-15T19:22:46.084Z,100515.28
2022-09-15T19:25:14.508Z,100513.81
2022-09-15T19:27:41.316Z,100521.25
2022-09-15T19:30:09.965Z,100520.50
2022-09-15T19:32:37.035Z,100521.75
2022-09-15T19:35:04.280Z,100521.00
2022-09-15T19:37:30.737Z,100522.25
2022-09-15T19:39:57.354Z,100520.78
2022-09-15T19:42:23.831Z,100526.25
2022-09-15T19:44:50.376Z,100519.25
2022-09-15T19:47:16.977Z,100515.75
2022-09-15T19:49:46.294Z,100516.50
2022-09-15T19:52:12.862Z,100516.50
2022-09-15T19:54:39.306Z,100513.78
2022-09-15T19:57:05.751Z,100525.22
2022-09-15T19:59:32.484Z,100527.22
2022-09-15T20:02:00.552Z,100520.25
2022-09-15T20:04:28.032Z,100520.72
2022-09-15T20:06:54.486Z,100521.97
2022-09-15T20:09:20.970Z,100525.47
2022-09-15T20:11:47.612Z,100518.50
2022-09-15T20:14:14.747Z,100523.75
2022-09-15T20:16:41.356Z,100527.94
2022-09-15T20:19:08.002Z,100530.41
2022-09-15T20:21:49.921Z,100530.91
2022-09-15T20:24:17.426Z,100538.63
2022-09-15T20:26:43.887Z,100533.63
2022-09-15T20:29:10.675Z,100535.13
2022-09-15T20:31:37.286Z,100539.84
2022-09-15T20:34:03.683Z,100550.56
2022-09-15T20:36:33.424Z,100556.78
2022-09-15T20:39:00.984Z,100546.34
2022-09-15T20:41:31.906Z,100539.34
2022-09-15T20:43:58.661Z,100550.28
2022-09-15T20:46:25.262Z,100544.56
2022-09-15T20:48:52.431Z,100545.31
2022-09-15T20:51:27.844Z,100549.28
2022-09-15T20:53:55.983Z,100543.06
2022-09-15T20:56:25.607Z,100541.84
2022-09-15T20:58:54.215Z,100545.06
2022-09-15T21:01:26.052Z,100549.53
2022-09-15T21:03:53.340Z,100544.81
2022-09-15T21:06:22.117Z,100553.75
2022-09-15T21:08:50.008Z,100549.53
2022-09-15T21:11:19.297Z,100551.50
2022-09-15T21:13:47.163Z,100551.28
2022-09-15T21:16:16.557Z,100555.97
2022-09-15T21:18:44.558Z,100562.97
2022-09-15T21:21:19.145Z,100554.47
2022-09-15T21:23:50.587Z,100558.47
2022-09-15T21:26:22.061Z,100563.19
2022-09-15T21:28:48.736Z,100556.97
2022-09-15T21:31:16.798Z,100555.47
2022-09-15T21:33:44.371Z,100558.22
2022-09-15T21:36:24.568Z,100563.69
2022-09-15T21:38:52.805Z,100560.94
2022-09-15T21:41:21.986Z,100555.97
2022-09-15T21:43:49.486Z,100564.66
2022-09-15T21:46:18.620Z,100570.13
2022-09-15T21:48:47.297Z,100571.34
2022-09-15T21:51:15.739Z,100569.38
2022-09-15T21:53:43.038Z,100570.59
2022-09-15T21:56:11.937Z,100579.56
2022-09-15T21:58:43.018Z,100573.34
2022-09-15T22:01:19.852Z,100575.31
2022-09-15T22:03:51.453Z,100583.53
2022-09-15T22:06:19.373Z,100573.59
2022-09-15T22:08:46.691Z,100575.56
2022-09-15T22:11:13.487Z,100570.56
2022-09-15T22:13:42.149Z,100568.13
2022-09-15T22:16:12.101Z,100576.31
2022-09-15T22:18:39.932Z,100576.78
2022-09-15T22:21:09.271Z,100573.28
2022-09-15T22:23:36.309Z,100573.28
2022-09-15T22:26:05.236Z,100581.25
2022-09-15T22:28:31.719Z,100575.78
2022-09-15T22:30:59.730Z,100575.78
2022-09-15T22:33:27.036Z,100579.03
2022-09-15T22:35:53.593Z,100582.97
2022-09-15T22:38:20.675Z,100585.69
2022-09-15T22:40:47.138Z,100574.03
2022-09-15T22:43:13.633Z,100581.97
2022-09-15T22:45:40.060Z,100575.00
2022-09-15T22:48:06.874Z,100573.03
2022-09-15T22:50:33.710Z,100580.47
2022-09-15T22:53:00.105Z,100574.28
2022-09-15T22:55:26.577Z,100578.97
2022-09-15T22:57:53.035Z,100574.75
2022-09-15T23:00:20.378Z,100577.47
2022-09-15T23:02:47.279Z,100577.03
2022-09-15T23:05:13.762Z,100575.50
2022-09-15T23:07:40.353Z,100571.25
2022-09-15T23:10:07.395Z,100582.72
2022-09-15T23:12:34.770Z,100568.31
2022-09-15T23:15:04.200Z,100574.97
2022-09-15T23:17:31.582Z,100578.47
2022-09-15T23:19:58.021Z,100575.47
2022-09-15T23:22:24.444Z,100578.47
2022-09-15T23:24:50.852Z,100568.75
2022-09-15T23:27:17.389Z,100565.28
2022-09-15T23:29:43.904Z,100569.28
2022-09-15T23:32:10.336Z,100571.25
2022-09-15T23:34:36.776Z,100562.75
2022-09-15T23:37:03.425Z,100561.56
2022-09-15T23:39:29.924Z,100560.03
2022-09-15T23:41:56.554Z,100558.06
2022-09-15T23:44:23.506Z,100564.03
2022-09-15T23:46:49.986Z,100564.75
2022-09-15T23:49:18.701Z,100564.03
2022-09-15T23:51:45.487Z,100556.31
2022-09-15T23:54:11.987Z,100559.56
2022-09-15T23:56:38.480Z,100560.53
2022-09-15T23:59:04.863Z,100558.78
